Flight Track Log - Related Links

Times and Time Zones

All times are in EDT time to prevent confusion due to time zone crossing. See the CHH7103 flight status page for this flight to view local times or setup timezone preferences in your user account.

Time Position Orientation Groundspeed Altitude Reporting Facility
EDT Latitude Longitude Course Direction KTS MPH feet Rate Location/Type
Fri 07:30:55 PM 40.1770 116.5820 358° North 259 298 3,500  Level FlightAware ADS-B
Fri 07:31:22 PM 40.2050 116.5810 358° North 259 298 3,500 1,010 Level FlightAware ADS-B
Fri 07:32:36 PM 40.2860 116.6580 36° Northeast 270 311 5,200 1,438 Climbing FlightAware ADS-B
Fri 07:32:58 PM 40.3050 116.6840 46° Northeast 275 316 5,800 720 Climbing FlightAware ADS-B
Fri 07:33:26 PM 40.3270 116.7120 44° Northeast 275 316 5,800 1,677 Level FlightAware ADS-B
Fri 07:34:31 PM 40.3890 116.7960 46° Northeast 282 325 8,400 1,696 Climbing FlightAware ADS-B
Fri 07:34:58 PM 40.4100 116.8240 45° Northeast 282 325 8,400  Level FlightAware ADS-B
Fri 07:35:22 PM 40.4290 116.8480 44° Northeast 282 325 8,400  Level FlightAware ADS-B
Fri 07:35:47 PM 40.4490 116.8740 45° Northeast 282 325 8,400 5,071 Level FlightAware ADS-B
Fri 07:36:46 PM 40.5220 116.9740 46° Northeast 319 367 15,500 5,919 Climbing FlightAware ADS-B
Fri 07:37:01 PM 40.5360 116.9970 51° Northeast 349 402 15,700 2,270 Climbing FlightAware ADS-B
Fri 07:38:00 PM 40.5630 117.1270 75° East 383 441 18,300 2,727 Climbing FlightAware ADS-B
Fri 07:38:29 PM 40.5740 117.1920 77° East 392 451 19,700 2,762 Climbing FlightAware ADS-B
Fri 07:39:03 PM 40.5940 117.2710 72° East 399 459 21,200 2,602 Climbing FlightAware ADS-B
Fri 07:39:52 PM 40.6310 117.3830 66° East 412 474 23,300 2,494 Climbing FlightAware ADS-B
Fri 07:40:32 PM 40.6620 117.4770 66° East 422 486 24,900 2,225 Climbing FlightAware ADS-B
Fri 07:41:21 PM 40.7020 117.5910 65° Northeast 431 496 26,600 1,085 Climbing FlightAware ADS-B
Fri 07:42:06 PM 40.7400 117.7020 66° East 432 497 26,600  Level FlightAware ADS-B
Fri 07:42:34 PM 40.7630 117.7690 66° East 432 497 26,600  Level FlightAware ADS-B
Fri 07:43:05 PM 40.7870 117.8430 67° East 431 496 26,600  Level FlightAware ADS-B
Fri 07:44:07 PM 40.8310 117.9730 66° East 431 496 26,600  Level FlightAware ADS-B
Fri 07:44:42 PM 40.8550 118.0450 66° East 431 496 26,600  Level FlightAware ADS-B
Fri 07:45:19 PM 40.8810 118.1200 65° Northeast 431 496 26,600  Level FlightAware ADS-B
Fri 07:46:18 PM 40.9220 118.2410 66° East 431 496 26,600  Level FlightAware ADS-B
Fri 07:47:06 PM 40.9550 118.3400 66° East 431 496 26,600  Level FlightAware ADS-B
Fri 07:49:00 PM 41.0464 118.5769 63° Northeast  Level Estimated
Fri 07:50:00 PM 41.0943 118.7019 63° Northeast  Level Estimated
Fri 07:51:00 PM 41.1421 118.8270 63° Northeast  Level Estimated
Fri 07:52:00 PM 41.1897 118.9523 63° Northeast  Level Estimated
Fri 07:53:00 PM 41.2372 119.0778 63° Northeast  Level Estimated
Fri 07:54:00 PM 41.2845 119.2035 63° Northeast  Level Estimated
Fri 07:55:00 PM 41.3318 119.3294 63° Northeast  Level Estimated
Fri 07:56:00 PM 41.3789 119.4555 64° Northeast  Level Estimated
Fri 07:57:00 PM 41.4258 119.5817 64° Northeast  Level Estimated
Fri 07:58:00 PM 41.4726 119.7081 64° Northeast  Level Estimated
Fri 07:59:00 PM 41.5193 119.8347 64° Northeast  Level Estimated
Fri 08:00:00 PM 41.5658 119.9615 64° Northeast  Level Estimated
Fri 08:01:00 PM 41.6122 120.0884 64° Northeast  Level Estimated
Fri 08:02:00 PM 41.6585 120.2156 64° Northeast  Level Estimated
Fri 08:03:00 PM 41.7046 120.3429 64° Northeast  Level Estimated
Fri 08:04:00 PM 41.7505 120.4704 64° Northeast  Level Estimated
Fri 08:05:00 PM 41.7964 120.5981 64° Northeast  Level Estimated
Fri 08:06:00 PM 41.8421 120.7260 64° Northeast  Level Estimated
Fri 08:07:00 PM 41.8876 120.8540 64° Northeast  Level Estimated
Fri 08:08:00 PM 41.9330 120.9823 65° Northeast  Level Estimated
Fri 08:09:00 PM 41.9783 121.1107 65° Northeast  Level Estimated
Fri 08:10:00 PM 42.0234 121.2393 65° Northeast  Level Estimated
Fri 08:11:00 PM 42.0684 121.3681 65° Northeast  Level Estimated
Fri 08:12:00 PM 42.1132 121.4971 65° Northeast  Level Estimated
Fri 08:13:00 PM 42.1579 121.6262 65° Northeast  Level Estimated
Fri 08:14:00 PM 42.2024 121.7555 65° Northeast  Level Estimated
Fri 08:15:00 PM 42.2468 121.8851 65° Northeast  Level Estimated
Fri 08:16:00 PM 42.2911 122.0148 65° Northeast  Level Estimated
Fri 08:17:00 PM 42.3352 122.1447 65° Northeast  Level Estimated
Fri 08:18:00 PM 42.3792 122.2747 65° Northeast  Level Estimated
Fri 08:19:00 PM 42.4230 122.4050 65° Northeast  Level Estimated
Fri 08:20:00 PM 42.4666 122.5354 66° East  Level Estimated
Fri 08:21:00 PM 42.5101 122.6660 66° East  Level Estimated
Fri 08:22:00 PM 42.5535 122.7968 66° East  Level Estimated
Fri 08:23:00 PM 42.5967 122.9277 66° East  Level Estimated
Fri 08:24:00 PM 42.6398 123.0589 66° East  Level Estimated
Fri 08:25:00 PM 42.6827 123.1902 66° East  Level Estimated
Fri 08:26:00 PM 42.7255 123.3217 66° East  Level Estimated
Fri 08:27:00 PM 42.7681 123.4535 66° East  Level Estimated
Fri 08:28:00 PM 42.8106 123.5853 66° East  Level Estimated
Fri 08:29:00 PM 42.8529 123.7174 66° East  Level Estimated
Fri 08:30:00 PM 42.8950 123.8496 66° East  Level Estimated
Fri 08:31:00 PM 42.9370 123.9820 67° East  Level Estimated
Fri 08:32:00 PM 42.9789 124.1146 67° East  Level Estimated
Fri 08:33:00 PM 43.0206 124.2474 67° East  Level Estimated
Fri 08:34:00 PM 43.0621 124.3804 67° East  Level Estimated
Fri 08:35:00 PM 43.1035 124.5135 67° East  Level Estimated
Fri 08:36:00 PM 43.1448 124.6469 67° East  Level Estimated
Fri 08:37:00 PM 43.1859 124.7803 67° East  Level Estimated
Fri 08:38:00 PM 43.2268 124.9140 67° East  Level Estimated
Fri 08:39:00 PM 43.2676 125.0479 67° East  Level Estimated
Fri 08:40:00 PM 43.3082 125.1819 67° East  Level Estimated
Fri 08:41:00 PM 43.3487 125.3161 67° East  Level Estimated
Fri 08:42:00 PM 43.3890 125.4505 68° East  Level Estimated
Fri 08:43:00 PM 43.4291 125.5851 68° East  Level Estimated
Fri 08:44:00 PM 43.4691 125.7199 68° East  Level Estimated
Fri 08:45:00 PM 43.5089 125.8548 68° East  Level Estimated
Fri 08:46:00 PM 43.5486 125.9899 68° East  Level Estimated
Fri 08:47:00 PM 43.5881 126.1252 68° East  Level Estimated
Fri 08:48:00 PM 43.6275 126.2607 68° East  Level Estimated
Fri 08:49:00 PM 43.6666 126.3963 68° East  Level Estimated
Fri 08:50:00 PM 43.7057 126.5321 68° East  Level Estimated
Fri 08:51:00 PM 43.7445 126.6681 68° East  Level Estimated
Fri 08:52:00 PM 43.7833 126.8043 68° East  Level Estimated
Fri 08:53:00 PM 43.8218 126.9406 69° East  Level Estimated
Fri 08:54:00 PM 43.8602 127.0771 69° East  Level Estimated
Fri 08:55:00 PM 43.8984 127.2139 69° East  Level Estimated
Fri 08:56:00 PM 43.9365 127.3507 69° East  Level Estimated
Fri 08:57:00 PM 43.9744 127.4878 69° East  Level Estimated
Fri 08:58:00 PM 44.0121 127.6250 69° East  Level Estimated
Fri 08:59:00 PM 44.0497 127.7624 69° East  Level Estimated
Fri 09:00:00 PM 44.0871 127.9000 69° East  Level Estimated
Fri 09:01:00 PM 44.1243 128.0377 69° East  Level Estimated
Fri 09:02:00 PM 44.1614 128.1756 69° East  Level Estimated
Fri 09:03:00 PM 44.1983 128.3137 70° East  Level Estimated
Fri 09:04:00 PM 44.2350 128.4520 70° East  Level Estimated
Fri 09:05:00 PM 44.2716 128.5904 70° East  Level Estimated
Fri 09:06:00 PM 44.3080 128.7290 70° East  Level Estimated
Fri 09:07:00 PM 44.3442 128.8678 70° East  Level Estimated
Fri 09:08:00 PM 44.3803 129.0067 70° East  Level Estimated
Fri 09:09:00 PM 44.4162 129.1459 70° East  Level Estimated
Fri 09:10:00 PM 44.4519 129.2852 70° East  Level Estimated
Fri 09:11:00 PM 44.4875 129.4246 70° East  Level Estimated
Fri 09:12:00 PM 44.5229 129.5643 70° East  Level Estimated
Fri 09:13:00 PM 44.5241 129.5690 71° East  Level Estimated
Fri 09:14:00 PM 44.5241 129.5690 35° Northeast  Level Estimated
Fri 09:15:00 PM 44.5241 129.5690 35° Northeast  Level Estimated
Fri 09:16:00 PM 44.5241 129.5690 35° Northeast  Level Estimated
Fri 09:17:00 PM 44.5241 129.5690 35° Northeast  Level Estimated
Fri 09:18:00 PM 44.5241 129.5690 35° Northeast  Level Estimated
Fri 09:19:00 PM 44.5241 129.5690 35° Northeast  Level Estimated
Fri 09:20:00 PM 44.5241 129.5690 35° Northeast  Level Estimated
Fri 09:21:00 PM 44.5241 129.5690 35° Northeast  Level Estimated
Fri 09:22:00 PM 44.5241 129.5690 35° Northeast  Level Estimated
Fri 09:23:00 PM 44.5241 129.5690 35° Northeast  Level Estimated

Login

Don't have an account? Register now (free) for customized features, flight alerts, and more!